Time;durP1;ratioP1;P1;durP2;ratioP2;P2;SDS_P1;SDS_P2;PMS_P1;PMS_P2;Temp;Humidity;BMP_temperature;BMP_pressure;BME280_temperature;BME280_humidity;BME280_pressure;Samples;Min_cycle;Max_cycle;Signal;HPM_P1;HPM_P2
2023/06/26 00:00:12;;;;;;;;;;;24.10;88.40;;;;;;5115180;28;19911;-47
2023/06/26 00:02:37;;;;;;;;;;;24.10;88.40;;;;;;5115033;28;20415;-48
2023/06/26 00:05:04;;;;;;;;;;;24.10;88.40;;;;;;5115352;28;19903;-49
2023/06/26 00:07:30;;;;;;;;;;;24.10;88.50;;;;;;5114810;28;20011;-51
2023/06/26 00:09:56;;;;;;;;;;;24.10;88.50;;;;;;5115131;28;19904;-51
2023/06/26 00:12:21;;;;;;;;;;;24.10;88.50;;;;;;5114966;28;19911;-48
2023/06/26 00:14:47;;;;;;;;;;;24.10;88.50;;;;;;5115028;28;19911;-50
2023/06/26 00:17:12;;;;;;;;;;;24.10;88.50;;;;;;5114816;28;19994;-52
2023/06/26 00:19:38;;;;;;;;;;;24.10;88.50;;;;;;5115428;28;20369;-52
2023/06/26 00:22:03;;;;;;;;;;;24.10;88.50;;;;;;5115095;28;19957;-48
2023/06/26 00:24:29;;;;;;;;;;;24.10;88.50;;;;;;5114697;28;19904;-52
2023/06/26 00:26:54;;;;;;;;;;;24.10;88.50;;;;;;5114942;28;19912;-49
2023/06/26 00:29:20;;;;;;;;;;;24.10;88.50;;;;;;5114689;28;19910;-50
2023/06/26 00:31:46;;;;;;;;;;;24.10;88.50;;;;;;5114808;28;19908;-52
2023/06/26 00:34:11;;;;;;;;;;;24.10;88.50;;;;;;5096544;28;19938;-47
2023/06/26 00:36:37;;;;;;;;;;;24.10;88.50;;;;;;5114791;28;20317;-50
2023/06/26 00:39:03;;;;;;;;;;;24.10;88.50;;;;;;5114850;28;20310;-47
2023/06/26 00:41:29;;;;;;;;;;;24.10;88.50;;;;;;5114774;28;19908;-51
2023/06/26 00:43:54;;;;;;;;;;;24.10;88.50;;;;;;5114726;28;20365;-48
2023/06/26 00:46:20;;;;;;;;;;;24.10;88.50;;;;;;5114727;28;20426;-53
2023/06/26 00:48:48;;;;;;;;;;;24.10;88.50;;;;;;5114667;28;19915;-52
2023/06/26 00:51:13;;;;;;;;;;;24.00;88.40;;;;;;5114385;28;20034;-51
2023/06/26 00:53:39;;;;;;;;;;;24.10;89.00;;;;;;5114646;28;20384;-49
2023/06/26 00:56:05;;;;;;;;;;;24.00;88.50;;;;;;5114281;28;19911;-48
2023/06/26 00:58:30;;;;;;;;;;;24.00;88.50;;;;;;5096389;28;19953;-49
2023/06/26 01:00:56;;;;;;;;;;;24.00;88.40;;;;;;5114570;28;20350;-49
2023/06/26 01:03:25;;;;;;;;;;;24.00;88.50;;;;;;5116807;28;19904;-49
2023/06/26 01:05:51;;;;;;;;;;;24.00;88.50;;;;;;5118800;28;19912;-51
2023/06/26 01:08:17;;;;;;;;;;;24.00;88.50;;;;;;5118848;28;19957;-50
2023/06/26 01:10:43;;;;;;;;;;;24.00;88.40;;;;;;5118700;28;19907;-50
2023/06/26 01:13:08;;;;;;;;;;;24.00;88.40;;;;;;5118441;28;19904;-54
2023/06/26 01:15:34;;;;;;;;;;;24.00;88.50;;;;;;5118685;28;19904;-47
2023/06/26 01:18:03;;;;;;;;;;;24.00;88.50;;;;;;5118968;28;19957;-51
2023/06/26 01:20:34;;;;;;;;;;;24.00;88.50;;;;;;5118491;28;19911;-49
2023/06/26 01:23:20;;;;;;;;;;;24.00;88.50;;;;;;5118341;28;19903;-51
2023/06/26 01:25:48;;;;;;;;;;;24.00;88.50;;;;;;5118806;28;19912;-51
2023/06/26 01:28:14;;;;;;;;;;;24.00;88.50;;;;;;5118414;28;19911;-49
2023/06/26 01:30:42;;;;;;;;;;;24.00;88.50;;;;;;5118533;28;20003;-49
2023/06/26 01:33:08;;;;;;;;;;;24.00;88.50;;;;;;5118127;28;20326;-51
2023/06/26 01:35:34;;;;;;;;;;;24.00;88.50;;;;;;5118342;28;19954;-51
2023/06/26 01:38:13;;;;;;;;;;;24.00;88.50;;;;;;5118274;28;19904;-49
2023/06/26 01:40:38;;;;;;;;;;;24.00;88.50;;;;;;5118253;28;20342;-51
2023/06/26 01:43:05;;;;;;;;;;;24.00;88.50;;;;;;5117806;28;19991;-50
2023/06/26 01:45:32;;;;;;;;;;;24.00;88.50;;;;;;5118085;28;19904;-52
2023/06/26 01:48:00;;;;;;;;;;;24.00;88.50;;;;;;5099507;28;19919;-53
2023/06/26 01:50:28;;;;;;;;;;;24.00;88.50;;;;;;5117765;28;19904;-52
2023/06/26 01:53:03;;;;;;;;;;;24.00;88.50;;;;;;5117589;28;19904;-48
2023/06/26 01:55:28;;;;;;;;;;;24.00;88.50;;;;;;5117911;28;19998;-50
2023/06/26 01:57:56;;;;;;;;;;;24.00;88.50;;;;;;5117568;28;20314;-49
2023/06/26 02:00:23;;;;;;;;;;;24.00;88.40;;;;;;5117843;28;19907;-52
2023/06/26 02:02:48;;;;;;;;;;;24.00;88.40;;;;;;5117823;28;19914;-50
2023/06/26 02:05:14;;;;;;;;;;;24.00;88.40;;;;;;5117532;28;20003;-49
2023/06/26 02:07:39;;;;;;;;;;;24.00;88.40;;;;;;5117670;28;19919;-49
2023/06/26 02:10:05;;;;;;;;;;;24.00;88.40;;;;;;5117669;28;20010;-49
2023/06/26 02:12:31;;;;;;;;;;;24.00;88.40;;;;;;5117618;28;19904;-49
2023/06/26 02:14:56;;;;;;;;;;;24.00;88.40;;;;;;5116186;28;19904;-49
2023/06/26 02:17:22;;;;;;;;;;;24.00;88.40;;;;;;5117556;28;19969;-48
2023/06/26 02:19:47;;;;;;;;;;;24.00;88.40;;;;;;5117452;28;19907;-48
2023/06/26 02:22:16;;;;;;;;;;;24.00;88.40;;;;;;5117494;28;19908;-52
2023/06/26 02:24:42;;;;;;;;;;;24.00;88.40;;;;;;5117163;28;19911;-54
2023/06/26 02:27:08;;;;;;;;;;;24.00;88.40;;;;;;5117268;28;19916;-50
2023/06/26 02:29:33;;;;;;;;;;;24.00;88.40;;;;;;5117293;28;19911;-50
2023/06/26 02:31:59;;;;;;;;;;;24.00;88.40;;;;;;5116973;28;20002;-48
2023/06/26 02:34:24;;;;;;;;;;;24.00;88.40;;;;;;5117223;28;19904;-48
2023/06/26 02:36:50;;;;;;;;;;;24.00;88.40;;;;;;5117529;28;19910;-49
2023/06/26 02:39:15;;;;;;;;;;;24.00;88.40;;;;;;5116868;28;19904;-51
2023/06/26 02:41:41;;;;;;;;;;;24.00;88.40;;;;;;5116795;28;19926;-51
2023/06/26 02:44:06;;;;;;;;;;;24.00;88.40;;;;;;5116734;28;20308;-48
2023/06/26 02:46:33;;;;;;;;;;;24.00;88.40;;;;;;5116695;28;20399;-48
2023/06/26 02:48:58;;;;;;;;;;;24.00;88.40;;;;;;5116927;28;19972;-49
2023/06/26 02:51:24;;;;;;;;;;;24.00;88.40;;;;;;5116930;28;19908;-47
2023/06/26 02:53:49;;;;;;;;;;;24.00;88.40;;;;;;5116773;28;19904;-49
2023/06/26 02:56:15;;;;;;;;;;;24.00;88.40;;;;;;5116693;28;19919;-48
2023/06/26 02:58:40;;;;;;;;;;;24.00;88.40;;;;;;5116451;28;19903;-50
2023/06/26 03:01:09;;;;;;;;;;;23.90;88.30;;;;;;5116342;28;20004;-51
2023/06/26 03:03:40;;;;;;;;;;;24.00;88.40;;;;;;5116558;28;19910;-50
2023/06/26 03:06:06;;;;;;;;;;;24.00;88.40;;;;;;5116829;28;19912;-51
2023/06/26 03:08:32;;;;;;;;;;;24.00;88.40;;;;;;5116355;28;19904;-50
2023/06/26 03:10:57;;;;;;;;;;;24.00;88.40;;;;;;5116367;28;20006;-54
2023/06/26 03:13:22;;;;;;;;;;;24.00;88.40;;;;;;5116105;28;20350;-50
2023/06/26 03:15:48;;;;;;;;;;;24.00;88.40;;;;;;5116350;28;19957;-49
2023/06/26 03:18:14;;;;;;;;;;;24.00;88.40;;;;;;5116389;28;19961;-51
2023/06/26 03:20:39;;;;;;;;;;;24.00;88.90;;;;;;5116224;28;19907;-49
2023/06/26 03:23:04;;;;;;;;;;;24.00;88.40;;;;;;5116269;28;19904;-48
2023/06/26 03:25:30;;;;;;;;;;;24.00;88.40;;;;;;5115710;28;19955;-52
2023/06/26 03:27:56;;;;;;;;;;;24.00;88.40;;;;;;5115693;28;19904;-49
2023/06/26 03:30:21;;;;;;;;;;;24.00;88.40;;;;;;5116027;28;19907;-49
2023/06/26 03:32:47;;;;;;;;;;;24.00;88.30;;;;;;5115738;28;19910;-49
2023/06/26 03:35:12;;;;;;;;;;;24.00;88.40;;;;;;5116048;28;19925;-52
2023/06/26 03:37:38;;;;;;;;;;;24.00;88.30;;;;;;5115519;28;19933;-50
2023/06/26 03:40:04;;;;;;;;;;;24.00;88.30;;;;;;5115848;28;20339;-48
2023/06/26 03:42:30;;;;;;;;;;;24.00;88.30;;;;;;5115526;28;19955;-51
2023/06/26 03:44:55;;;;;;;;;;;24.00;88.30;;;;;;5115451;28;19953;-52
2023/06/26 03:47:21;;;;;;;;;;;24.00;88.20;;;;;;5115257;28;19916;-48
2023/06/26 03:49:46;;;;;;;;;;;24.00;88.20;;;;;;5115397;28;19904;-49
2023/06/26 03:52:12;;;;;;;;;;;24.10;88.20;;;;;;5115552;28;20339;-50
2023/06/26 03:54:37;;;;;;;;;;;24.10;88.20;;;;;;5115248;28;19908;-52
2023/06/26 03:57:03;;;;;;;;;;;24.10;88.10;;;;;;5115320;28;19904;-49
2023/06/26 03:59:28;;;;;;;;;;;24.10;88.10;;;;;;5115212;28;19942;-49
2023/06/26 04:01:53;;;;;;;;;;;24.10;88.10;;;;;;5115480;28;19950;-51
2023/06/26 04:04:19;;;;;;;;;;;24.10;88.10;;;;;;5115394;28;19904;-50
2023/06/26 04:06:44;;;;;;;;;;;24.10;88.10;;;;;;5115207;28;20238;-49
2023/06/26 04:09:10;;;;;;;;;;;24.10;88.00;;;;;;5115400;28;19908;-52
2023/06/26 04:11:35;;;;;;;;;;;24.10;88.10;;;;;;5114908;28;19947;-48
2023/06/26 04:14:01;;;;;;;;;;;24.10;88.00;;;;;;5114927;28;20282;-49
2023/06/26 04:16:26;;;;;;;;;;;24.10;87.90;;;;;;5115198;28;19985;-48
2023/06/26 04:18:52;;;;;;;;;;;24.10;87.90;;;;;;5114908;28;19903;-49
2023/06/26 04:21:18;;;;;;;;;;;24.10;87.90;;;;;;5096884;28;19907;-53
2023/06/26 04:23:44;;;;;;;;;;;24.10;87.90;;;;;;5115025;28;19990;-50
2023/06/26 04:26:14;;;;;;;;;;;24.10;87.90;;;;;;5114722;28;20245;-51
2023/06/26 04:28:40;;;;;;;;;;;24.10;87.90;;;;;;5114901;28;19951;-51
2023/06/26 04:31:05;;;;;;;;;;;24.10;88.00;;;;;;5114680;28;19903;-50
2023/06/26 04:33:31;;;;;;;;;;;24.10;88.10;;;;;;5096580;28;19908;-49
2023/06/26 04:35:57;;;;;;;;;;;24.20;88.20;;;;;;5114782;28;19925;-50
2023/06/26 04:38:23;;;;;;;;;;;24.20;88.30;;;;;;5114308;28;19911;-52
2023/06/26 04:40:48;;;;;;;;;;;24.10;88.20;;;;;;5114780;28;19904;-51
2023/06/26 04:43:14;;;;;;;;;;;24.10;88.20;;;;;;5114647;28;20277;-50
2023/06/26 04:45:40;;;;;;;;;;;24.20;88.20;;;;;;5114661;28;19926;-49
2023/06/26 04:48:09;;;;;;;;;;;24.20;88.20;;;;;;5114494;28;20308;-50
2023/06/26 04:50:35;;;;;;;;;;;24.20;88.20;;;;;;5114408;28;20261;-50
2023/06/26 04:53:00;;;;;;;;;;;24.10;88.10;;;;;;5096297;28;19904;-51
2023/06/26 04:55:26;;;;;;;;;;;24.20;88.20;;;;;;5114594;28;20255;-49
2023/06/26 04:57:52;;;;;;;;;;;24.20;88.20;;;;;;5114493;28;20387;-51
2023/06/26 05:00:18;;;;;;;;;;;24.20;88.20;;;;;;5114432;28;19911;-53
2023/06/26 05:02:43;;;;;;;;;;;24.20;88.20;;;;;;5114227;28;19911;-53
2023/06/26 05:05:10;;;;;;;;;;;24.20;88.20;;;;;;5113987;28;20002;-48
2023/06/26 05:07:36;;;;;;;;;;;24.20;88.20;;;;;;5114073;28;19912;-50
2023/06/26 05:10:01;;;;;;;;;;;24.20;88.20;;;;;;5114122;28;19911;-51
2023/06/26 05:12:26;;;;;;;;;;;24.20;88.20;;;;;;5114008;28;19904;-50
2023/06/26 05:14:52;;;;;;;;;;;24.20;88.20;;;;;;5114386;28;19992;-51
2023/06/26 05:17:17;;;;;;;;;;;24.20;88.20;;;;;;5114142;28;20381;-53
2023/06/26 05:19:43;;;;;;;;;;;24.20;88.20;;;;;;5114341;28;19903;-50
2023/06/26 05:22:09;;;;;;;;;;;24.20;88.20;;;;;;5114520;28;20338;-50
2023/06/26 05:24:38;;;;;;;;;;;24.20;88.20;;;;;;5114274;28;19918;-53
2023/06/26 05:27:04;;;;;;;;;;;24.20;88.20;;;;;;5113818;28;19915;-52
2023/06/26 05:29:30;;;;;;;;;;;24.20;88.20;;;;;;5114277;28;19954;-52
2023/06/26 05:31:56;;;;;;;;;;;24.20;88.20;;;;;;5114054;28;19957;-52
2023/06/26 05:34:22;;;;;;;;;;;24.20;88.20;;;;;;5113666;28;19908;-54
2023/06/26 05:36:50;;;;;;;;;;;24.20;88.30;;;;;;5114009;28;19962;-53
2023/06/26 05:39:15;;;;;;;;;;;24.20;88.20;;;;;;5114147;28;19918;-52
2023/06/26 05:41:43;;;;;;;;;;;24.20;88.20;;;;;;5113586;28;19904;-49
2023/06/26 05:44:08;;;;;;;;;;;24.20;88.20;;;;;;5113893;28;20434;-50
2023/06/26 05:46:34;;;;;;;;;;;24.20;88.20;;;;;;5113502;28;19911;-53
2023/06/26 05:49:01;;;;;;;;;;;24.20;88.30;;;;;;5114618;28;20389;-52
2023/06/26 05:51:27;;;;;;;;;;;24.20;88.20;;;;;;5099441;28;20002;-51
2023/06/26 05:53:52;;;;;;;;;;;24.20;88.30;;;;;;5117343;28;20306;-52
2023/06/26 05:56:18;;;;;;;;;;;24.20;88.30;;;;;;5117762;28;19908;-52
2023/06/26 05:58:44;;;;;;;;;;;24.20;88.30;;;;;;5117523;28;19911;-49
2023/06/26 06:01:09;;;;;;;;;;;24.20;88.30;;;;;;5117197;28;19915;-52
2023/06/26 06:03:35;;;;;;;;;;;24.20;88.30;;;;;;5116933;28;19970;-52
2023/06/26 06:06:00;;;;;;;;;;;24.20;88.30;;;;;;5117294;28;19912;-53
2023/06/26 06:08:26;;;;;;;;;;;24.10;83.10;;;;;;5116942;28;19904;-53
2023/06/26 06:10:51;;;;;;;;;;;24.10;82.40;;;;;;5116878;28;19904;-53
2023/06/26 06:13:17;;;;;;;;;;;24.10;81.70;;;;;;5117187;28;19904;-52
2023/06/26 06:15:42;;;;;;;;;;;24.10;81.20;;;;;;5099026;28;19911;-50
2023/06/26 06:18:08;;;;;;;;;;;24.10;82.60;;;;;;5099069;28;19908;-50
2023/06/26 06:20:33;;;;;;;;;;;24.10;83.50;;;;;;5117094;28;20345;-53
2023/06/26 06:22:59;;;;;;;;;;;24.10;84.40;;;;;;5116837;28;19998;-49
2023/06/26 06:25:24;;;;;;;;;;;24.10;84.90;;;;;;5116864;28;19904;-52
2023/06/26 06:27:49;;;;;;;;;;;24.10;85.10;;;;;;5117090;28;19919;-53
2023/06/26 06:30:15;;;;;;;;;;;24.10;85.30;;;;;;5116900;28;20020;-49
2023/06/26 06:32:40;;;;;;;;;;;24.10;85.50;;;;;;5116699;28;19903;-52
2023/06/26 06:35:09;;;;;;;;;;;24.10;85.70;;;;;;5116909;28;19910;-50
2023/06/26 06:37:35;;;;;;;;;;;24.10;85.80;;;;;;5116667;28;19904;-48
2023/06/26 06:40:00;;;;;;;;;;;24.10;86.00;;;;;;5116735;28;19904;-53
2023/06/26 06:42:26;;;;;;;;;;;24.10;86.20;;;;;;5116668;28;19994;-52
2023/06/26 06:44:51;;;;;;;;;;;24.10;86.30;;;;;;5116696;28;19949;-48
2023/06/26 06:47:17;;;;;;;;;;;24.10;86.40;;;;;;5116109;28;19916;-52
2023/06/26 06:49:42;;;;;;;;;;;24.10;86.50;;;;;;5098277;28;19910;-49
2023/06/26 06:52:08;;;;;;;;;;;24.10;86.60;;;;;;5116914;28;19912;-49
2023/06/26 06:54:50;;;;;;;;;;;24.10;86.70;;;;;;5116568;28;19904;-48
2023/06/26 06:57:16;;;;;;;;;;;24.10;86.70;;;;;;5116326;28;19911;-52
2023/06/26 06:59:42;;;;;;;;;;;24.10;86.80;;;;;;5116034;28;19904;-51
2023/06/26 07:02:07;;;;;;;;;;;24.10;86.80;;;;;;5116187;28;19997;-49
2023/06/26 07:04:33;;;;;;;;;;;24.10;86.90;;;;;;5115998;28;19984;-51
2023/06/26 07:06:58;;;;;;;;;;;24.10;86.90;;;;;;5097912;28;20338;-51
2023/06/26 07:09:23;;;;;;;;;;;24.10;87.00;;;;;;5116065;28;19908;-52
2023/06/26 07:11:49;;;;;;;;;;;24.10;87.00;;;;;;5116619;28;19978;-53
2023/06/26 07:14:14;;;;;;;;;;;24.10;87.10;;;;;;5115826;28;19949;-47
2023/06/26 07:16:40;;;;;;;;;;;24.10;87.10;;;;;;5097720;28;19910;-52
2023/06/26 07:19:05;;;;;;;;;;;24.10;87.20;;;;;;5116298;28;20296;-48
2023/06/26 07:21:31;;;;;;;;;;;24.10;87.10;;;;;;5116090;28;19914;-50
2023/06/26 07:23:56;;;;;;;;;;;24.10;87.10;;;;;;5116046;28;19911;-50
2023/06/26 07:26:22;;;;;;;;;;;24.10;87.10;;;;;;5115721;28;20371;-52
2023/06/26 07:28:48;;;;;;;;;;;24.10;87.10;;;;;;5115660;28;19912;-53
2023/06/26 07:31:14;;;;;;;;;;;24.10;87.10;;;;;;5115600;28;20262;-49
2023/06/26 07:33:40;;;;;;;;;;;24.10;87.10;;;;;;5115741;28;19911;-47
2023/06/26 07:36:05;;;;;;;;;;;24.10;87.20;;;;;;5115685;28;20223;-48
2023/06/26 07:38:31;;;;;;;;;;;24.10;87.10;;;;;;5115615;28;20366;-53
2023/06/26 07:40:56;;;;;;;;;;;24.10;87.20;;;;;;5115733;28;20006;-50
2023/06/26 07:43:23;;;;;;;;;;;24.10;87.20;;;;;;5115482;28;19912;-49
2023/06/26 07:45:51;;;;;;;;;;;24.10;87.20;;;;;;5115317;28;20273;-49
2023/06/26 07:48:16;;;;;;;;;;;24.10;87.10;;;;;;5115583;28;19915;-49
2023/06/26 07:50:42;;;;;;;;;;;24.10;87.10;;;;;;5115630;28;20398;-52
2023/06/26 07:53:08;;;;;;;;;;;24.10;87.80;;;;;;5115307;28;20226;-50
2023/06/26 07:55:33;;;;;;;;;;;24.10;87.20;;;;;;5115153;28;20002;-49
2023/06/26 07:57:59;;;;;;;;;;;24.10;87.30;;;;;;5115676;28;19907;-50
2023/06/26 08:00:24;;;;;;;;;;;24.10;87.30;;;;;;5115345;28;19904;-51
2023/06/26 08:02:50;;;;;;;;;;;24.10;87.30;;;;;;5115354;28;19907;-51
2023/06/26 08:05:15;;;;;;;;;;;24.10;87.40;;;;;;5114837;28;19993;-50
2023/06/26 08:07:41;;;;;;;;;;;24.10;87.40;;;;;;5115121;28;19912;-51
2023/06/26 08:10:06;;;;;;;;;;;24.10;87.40;;;;;;5096702;28;19904;-50
2023/06/26 08:12:32;;;;;;;;;;;24.10;87.40;;;;;;5114235;28;19947;-51
2023/06/26 08:14:57;;;;;;;;;;;24.10;87.40;;;;;;5115082;28;19908;-50
2023/06/26 08:17:23;;;;;;;;;;;24.10;87.40;;;;;;5115076;28;19914;-52
2023/06/26 08:19:48;;;;;;;;;;;24.10;87.40;;;;;;5115125;28;20334;-54
2023/06/26 08:22:14;;;;;;;;;;;24.10;87.50;;;;;;5114977;28;19904;-50
2023/06/26 08:24:39;;;;;;;;;;;24.10;87.50;;;;;;5114877;28;19995;-49
2023/06/26 08:27:07;;;;;;;;;;;24.10;87.50;;;;;;5114892;28;19918;-49
2023/06/26 08:29:32;;;;;;;;;;;24.20;87.50;;;;;;5114713;28;19939;-50
2023/06/26 08:31:58;;;;;;;;;;;24.10;87.50;;;;;;5114589;28;19908;-51
2023/06/26 08:34:24;;;;;;;;;;;24.20;87.50;;;;;;5114351;28;19904;-49
2023/06/26 08:36:50;;;;;;;;;;;24.10;87.50;;;;;;5114570;28;19904;-51
2023/06/26 08:39:15;;;;;;;;;;;24.20;87.50;;;;;;5114603;28;19911;-52
2023/06/26 08:41:42;;;;;;;;;;;24.10;87.50;;;;;;5114855;28;19904;-49
2023/06/26 08:44:07;;;;;;;;;;;24.20;87.50;;;;;;5114682;28;19970;-49
2023/06/26 08:46:33;;;;;;;;;;;24.10;87.50;;;;;;5114732;28;19912;-50
2023/06/26 08:49:00;;;;;;;;;;;24.10;87.40;;;;;;5115249;28;19920;-52
2023/06/26 08:51:28;;;;;;;;;;;24.10;87.40;;;;;;5114364;28;20264;-52
2023/06/26 08:54:01;;;;;;;;;;;24.20;87.50;;;;;;5114602;28;19904;-53
2023/06/26 08:56:32;;;;;;;;;;;24.10;87.50;;;;;;5114301;28;19903;-55
2023/06/26 08:58:57;;;;;;;;;;;24.10;87.50;;;;;;5114514;28;19904;-54
2023/06/26 09:01:24;;;;;;;;;;;24.10;87.50;;;;;;5114197;28;19904;-53
2023/06/26 09:03:50;;;;;;;;;;;24.10;87.50;;;;;;5114226;28;19904;-50
2023/06/26 09:06:15;;;;;;;;;;;24.20;87.60;;;;;;5114418;28;19965;-53
2023/06/26 09:08:41;;;;;;;;;;;24.20;87.60;;;;;;5114255;28;19907;-48
2023/06/26 09:11:06;;;;;;;;;;;24.10;87.50;;;;;;5114046;28;20369;-53
2023/06/26 09:13:32;;;;;;;;;;;24.10;87.50;;;;;;5114248;28;19949;-51
2023/06/26 09:15:58;;;;;;;;;;;24.20;87.60;;;;;;5114021;28;19999;-52
2023/06/26 09:18:23;;;;;;;;;;;24.20;87.60;;;;;;5114507;28;19911;-51
2023/06/26 09:20:49;;;;;;;;;;;24.10;87.50;;;;;;5114403;28;19904;-50
2023/06/26 09:23:16;;;;;;;;;;;24.20;87.60;;;;;;5113911;28;19904;-49
2023/06/26 09:25:42;;;;;;;;;;;24.10;87.60;;;;;;5118023;28;20041;-48
2023/06/26 09:28:08;;;;;;;;;;;24.20;87.60;;;;;;5118208;28;19946;-52
2023/06/26 09:30:33;;;;;;;;;;;24.20;88.10;;;;;;5118168;28;20371;-53
2023/06/26 09:33:18;;;;;;;;;;;24.20;87.60;;;;;;5118111;28;19941;-51
2023/06/26 09:35:44;;;;;;;;;;;24.10;87.50;;;;;;5118120;28;19986;-50
2023/06/26 09:38:11;;;;;;;;;;;24.20;87.50;;;;;;5118082;28;19947;-50
2023/06/26 09:40:38;;;;;;;;;;;24.20;87.50;;;;;;5118122;28;19990;-51
2023/06/26 09:43:04;;;;;;;;;;;24.20;87.50;;;;;;5099812;28;20223;-51
2023/06/26 09:45:30;;;;;;;;;;;24.20;87.50;;;;;;5117693;28;19910;-52
2023/06/26 09:47:59;;;;;;;;;;;24.20;87.60;;;;;;5117624;28;19916;-52
2023/06/26 09:50:27;;;;;;;;;;;24.20;87.70;;;;;;5117532;28;19908;-48
2023/06/26 09:52:52;;;;;;;;;;;24.10;87.60;;;;;;5117552;28;19903;-51
2023/06/26 09:55:19;;;;;;;;;;;24.20;87.60;;;;;;5117584;28;19973;-51
2023/06/26 09:57:45;;;;;;;;;;;24.20;87.60;;;;;;5117661;28;20015;-50
2023/06/26 10:00:12;;;;;;;;;;;24.20;87.70;;;;;;5118033;28;19907;-51
2023/06/26 10:02:37;;;;;;;;;;;24.20;87.60;;;;;;5117656;28;20007;-50
2023/06/26 10:05:03;;;;;;;;;;;24.20;87.50;;;;;;5117235;28;19908;-52
2023/06/26 10:07:29;;;;;;;;;;;24.20;87.50;;;;;;5117350;28;19919;-51
2023/06/26 10:09:55;;;;;;;;;;;24.20;87.50;;;;;;5117123;28;19912;-51
2023/06/26 10:12:27;;;;;;;;;;;24.20;87.50;;;;;;5099029;28;20254;-51
2023/06/26 10:14:53;;;;;;;;;;;24.20;87.60;;;;;;5117116;28;19926;-53
2023/06/26 10:17:20;;;;;;;;;;;24.20;87.50;;;;;;5117172;28;20342;-50
2023/06/26 10:19:47;;;;;;;;;;;24.20;87.50;;;;;;5117366;28;19904;-53
2023/06/26 10:22:15;;;;;;;;;;;24.20;87.50;;;;;;5117285;28;19957;-52
2023/06/26 10:24:41;;;;;;;;;;;24.20;87.50;;;;;;5117285;28;19904;-49
2023/06/26 10:27:10;;;;;;;;;;;24.20;87.50;;;;;;5117059;28;19907;-53
2023/06/26 10:29:36;;;;;;;;;;;24.20;87.50;;;;;;5117276;28;19908;-50
2023/06/26 10:32:03;;;;;;;;;;;24.20;87.40;;;;;;5117091;28;19911;-49
2023/06/26 10:34:28;;;;;;;;;;;24.20;87.40;;;;;;5117115;28;19969;-49
2023/06/26 10:37:04;;;;;;;;;;;24.20;87.40;;;;;;5116064;28;19908;-50
2023/06/26 10:39:52;;;;;;;;;;;24.20;87.40;;;;;;5116970;28;19904;-49
2023/06/26 10:42:21;;;;;;;;;;;24.20;87.40;;;;;;5116968;28;19911;-54
2023/06/26 10:44:47;;;;;;;;;;;24.20;87.90;;;;;;5117096;28;19918;-51
2023/06/26 10:47:42;;;;;;;;;;;24.20;87.40;;;;;;5116417;28;19969;-49
2023/06/26 10:50:20;;;;;;;;;;;24.20;87.40;;;;;;5094844;28;19946;-51
2023/06/26 10:53:06;;;;;;;;;;;24.20;87.40;;;;;;5116691;28;20034;-48
2023/06/26 10:55:31;;;;;;;;;;;24.20;87.40;;;;;;5097945;28;19904;-51
2023/06/26 10:57:57;;;;;;;;;;;24.20;87.40;;;;;;5116352;28;19903;-49
2023/06/26 11:00:22;;;;;;;;;;;24.20;87.40;;;;;;5116572;28;20290;-50
2023/06/26 11:02:49;;;;;;;;;;;24.20;87.40;;;;;;5116870;28;19931;-50
2023/06/26 11:05:23;;;;;;;;;;;24.20;87.50;;;;;;5116617;28;19991;-48
2023/06/26 11:08:15;;;;;;;;;;;24.20;87.40;;;;;;5116427;28;19981;-53
2023/06/26 11:11:07;;;;;;;;;;;24.20;87.40;;;;;;5104924;28;20378;-52
2023/06/26 11:13:34;;;;;;;;;;;24.20;87.40;;;;;;5111421;28;19903;-49
2023/06/26 11:16:01;;;;;;;;;;;24.20;87.30;;;;;;5116291;28;19911;-54
2023/06/26 11:18:27;;;;;;;;;;;24.20;87.40;;;;;;5115903;28;19903;-48
2023/06/26 11:20:53;;;;;;;;;;;24.20;87.30;;;;;;5116139;28;20346;-49
2023/06/26 11:23:22;;;;;;;;;;;24.20;87.30;;;;;;5116104;28;20370;-48
2023/06/26 11:25:47;;;;;;;;;;;24.20;87.40;;;;;;5115829;28;20407;-50
2023/06/26 11:28:13;;;;;;;;;;;24.20;87.40;;;;;;5116348;28;19907;-52
2023/06/26 11:30:41;;;;;;;;;;;24.20;87.60;;;;;;5115731;28;20380;-48
2023/06/26 11:33:07;;;;;;;;;;;24.20;87.40;;;;;;5115799;28;20325;-50
2023/06/26 11:35:33;;;;;;;;;;;24.20;87.20;;;;;;5115345;28;19904;-49
2023/06/26 11:38:05;;;;;;;;;;;24.20;87.20;;;;;;5115670;28;20006;-50
2023/06/26 11:40:32;;;;;;;;;;;24.20;87.20;;;;;;5115805;28;19987;-50
2023/06/26 11:42:59;;;;;;;;;;;24.20;87.20;;;;;;5115595;28;19904;-48
2023/06/26 11:45:25;;;;;;;;;;;24.20;87.30;;;;;;5115763;28;19946;-51
2023/06/26 11:47:50;;;;;;;;;;;24.20;87.30;;;;;;5096782;28;19955;-48
2023/06/26 11:50:17;;;;;;;;;;;24.20;87.20;;;;;;5115674;28;19911;-50
2023/06/26 11:52:45;;;;;;;;;;;24.20;87.20;;;;;;5114719;28;21504;-51
2023/06/26 11:55:10;;;;;;;;;;;24.20;87.20;;;;;;5115499;28;19951;-51
2023/06/26 11:57:36;;;;;;;;;;;24.20;87.20;;;;;;5115128;28;20258;-50
2023/06/26 12:00:14;;;;;;;;;;;24.20;87.20;;;;;;5115075;28;20002;-52
2023/06/26 12:02:40;;;;;;;;;;;24.20;87.20;;;;;;5114964;28;19904;-51
2023/06/26 12:05:06;;;;;;;;;;;24.20;87.20;;;;;;5115181;28;19949;-49
2023/06/26 12:07:32;;;;;;;;;;;24.20;87.30;;;;;;5114825;28;19908;-52
2023/06/26 12:09:58;;;;;;;;;;;24.20;87.20;;;;;;5114934;28;20419;-51
2023/06/26 12:12:24;;;;;;;;;;;24.20;87.20;;;;;;5115007;28;19904;-54
2023/06/26 12:14:51;;;;;;;;;;;24.20;87.20;;;;;;5115528;28;19903;-52
2023/06/26 12:17:16;;;;;;;;;;;24.20;87.10;;;;;;5114806;28;19904;-54
2023/06/26 12:19:47;;;;;;;;;;;24.20;87.00;;;;;;5115027;28;19911;-53
2023/06/26 12:22:13;;;;;;;;;;;24.20;87.10;;;;;;5114709;28;19907;-52
2023/06/26 12:24:39;;;;;;;;;;;24.20;87.00;;;;;;5115239;28;19908;-48
2023/06/26 12:27:15;;;;;;;;;;;24.20;87.10;;;;;;5096674;28;19908;-53
2023/06/26 12:29:46;;;;;;;;;;;24.20;87.10;;;;;;5114443;28;19915;-49
2023/06/26 12:32:12;;;;;;;;;;;24.20;87.20;;;;;;5114803;28;19911;-54
2023/06/26 12:34:38;;;;;;;;;;;24.20;87.20;;;;;;5114480;28;19908;-49
2023/06/26 12:37:05;;;;;;;;;;;24.20;87.20;;;;;;5114430;28;19924;-49
2023/06/26 12:39:44;;;;;;;;;;;24.20;87.20;;;;;;5114673;28;19904;-49
2023/06/26 12:42:13;;;;;;;;;;;24.20;87.20;;;;;;5114636;28;20006;-54
2023/06/26 12:44:38;;;;;;;;;;;24.20;87.20;;;;;;5114529;28;19927;-49
2023/06/26 12:47:05;;;;;;;;;;;24.20;87.20;;;;;;5114251;28;20305;-49
2023/06/26 12:49:32;;;;;;;;;;;24.20;87.20;;;;;;5114714;28;19958;-53
2023/06/26 12:51:58;;;;;;;;;;;24.20;87.20;;;;;;5114769;28;19903;-51
2023/06/26 12:54:24;;;;;;;;;;;24.20;87.20;;;;;;5114403;28;20426;-51
2023/06/26 12:56:49;;;;;;;;;;;24.20;87.20;;;;;;5114221;28;19904;-52
2023/06/26 12:59:14;;;;;;;;;;;24.30;87.20;;;;;;5114339;28;20287;-51
2023/06/26 13:01:40;;;;;;;;;;;24.20;87.10;;;;;;5114356;28;19904;-54
2023/06/26 13:04:05;;;;;;;;;;;24.20;87.10;;;;;;5114252;28;19903;-49
2023/06/26 13:06:31;;;;;;;;;;;24.30;87.20;;;;;;5113969;28;19912;-52
2023/06/26 13:08:57;;;;;;;;;;;24.30;87.30;;;;;;5114521;28;19984;-51
2023/06/26 13:11:23;;;;;;;;;;;24.30;87.30;;;;;;5114010;28;19925;-52
2023/06/26 13:13:48;;;;;;;;;;;24.30;87.20;;;;;;5114313;28;20002;-51
2023/06/26 13:16:14;;;;;;;;;;;24.30;87.20;;;;;;5114268;28;19903;-52
2023/06/26 13:18:39;;;;;;;;;;;24.30;87.20;;;;;;5113703;28;19954;-52
2023/06/26 13:21:05;;;;;;;;;;;24.30;87.10;;;;;;5113887;28;19903;-50
2023/06/26 13:23:30;;;;;;;;;;;24.30;87.10;;;;;;5113991;28;19904;-50
2023/06/26 13:25:55;;;;;;;;;;;24.30;87.30;;;;;;5114180;28;20249;-53
2023/06/26 13:28:21;;;;;;;;;;;24.30;87.20;;;;;;5114080;28;19908;-53
2023/06/26 13:30:46;;;;;;;;;;;24.30;87.30;;;;;;5114125;28;19904;-51
2023/06/26 13:33:12;;;;;;;;;;;24.30;87.30;;;;;;5113766;28;20399;-53
2023/06/26 13:35:37;;;;;;;;;;;24.30;87.30;;;;;;5113893;28;19943;-54
2023/06/26 13:38:03;;;;;;;;;;;24.20;87.20;;;;;;5113832;28;19904;-51
2023/06/26 13:40:28;;;;;;;;;;;24.30;87.30;;;;;;5113754;28;19912;-52
2023/06/26 13:42:54;;;;;;;;;;;24.30;87.30;;;;;;5114022;28;19929;-51
2023/06/26 13:45:19;;;;;;;;;;;24.30;87.40;;;;;;5113765;28;20261;-50
2023/06/26 13:47:44;;;;;;;;;;;24.30;87.40;;;;;;5113553;28;19973;-49
2023/06/26 13:50:10;;;;;;;;;;;24.30;87.40;;;;;;5114359;28;19911;-49
2023/06/26 13:52:36;;;;;;;;;;;24.30;87.40;;;;;;5114190;28;19904;-49
2023/06/26 13:55:04;;;;;;;;;;;24.30;87.30;;;;;;5113889;28;19904;-49
2023/06/26 13:57:30;;;;;;;;;;;24.30;87.20;;;;;;5113861;28;19904;-50
2023/06/26 13:59:56;;;;;;;;;;;24.30;87.20;;;;;;5113730;28;19904;-49
2023/06/26 14:02:22;;;;;;;;;;;24.30;87.20;;;;;;5095573;28;19904;-52
2023/06/26 14:04:47;;;;;;;;;;;24.30;87.20;;;;;;5113260;28;20365;-48
2023/06/26 14:07:14;;;;;;;;;;;24.30;87.10;;;;;;5113819;28;19908;-54
2023/06/26 14:09:39;;;;;;;;;;;24.30;87.10;;;;;;5113804;28;19911;-50
2023/06/26 14:12:05;;;;;;;;;;;24.30;87.20;;;;;;5116085;28;19904;-49